createdAt,value
2018-10-12T00:00:27.409Z,12.40
2018-10-12T00:03:00.503Z,12.30
2018-10-12T00:05:28.721Z,12.20
2018-10-12T00:07:56.883Z,12.10
2018-10-12T00:10:25.077Z,12.10
2018-10-12T00:12:53.247Z,12.00
2018-10-12T00:15:21.403Z,12.00
2018-10-12T00:17:50.679Z,11.80
2018-10-12T00:20:18.880Z,11.80
2018-10-12T00:22:47.096Z,11.80
2018-10-12T00:25:15.319Z,11.80
2018-10-12T00:27:43.500Z,11.70
2018-10-12T00:30:12.129Z,11.70
2018-10-12T00:32:40.343Z,11.60
2018-10-12T00:35:08.546Z,11.60
2018-10-12T00:37:36.728Z,11.50
2018-10-12T00:40:06.684Z,11.50
2018-10-12T00:42:34.871Z,11.40
2018-10-12T00:45:03.200Z,11.40
2018-10-12T00:47:31.389Z,11.40
2018-10-12T00:49:59.590Z,11.40
2018-10-12T00:52:27.795Z,11.20
2018-10-12T00:54:56.009Z,11.10
2018-10-12T00:57:24.291Z,11.10
2018-10-12T00:59:52.512Z,11.10
2018-10-12T01:02:20.680Z,11.10
2018-10-12T01:04:48.867Z,11.00
2018-10-12T01:07:17.027Z,11.00
2018-10-12T01:09:45.222Z,10.90
2018-10-12T01:12:48.230Z,10.90
2018-10-12T01:15:16.453Z,10.90
2018-10-12T01:17:44.659Z,10.80
2018-10-12T01:20:12.838Z,10.80
2018-10-12T01:22:41.008Z,10.90
2018-10-12T01:25:09.537Z,10.80
2018-10-12T01:27:37.718Z,10.80
2018-10-12T01:30:06.342Z,10.80
2018-10-12T01:32:39.731Z,10.70
2018-10-12T01:35:07.914Z,10.60
2018-10-12T01:37:36.107Z,10.60
2018-10-12T01:40:04.538Z,10.60
2018-10-12T01:42:32.698Z,10.50
2018-10-12T01:45:00.940Z,10.40
2018-10-12T01:47:29.106Z,10.40
2018-10-12T01:49:57.311Z,10.40
2018-10-12T01:52:25.491Z,10.30
2018-10-12T01:54:53.641Z,10.20
2018-10-12T01:57:21.788Z,10.20
2018-10-12T01:59:50.016Z,10.30
2018-10-12T02:02:18.195Z,10.30
2018-10-12T02:04:46.389Z,10.30
2018-10-12T02:07:14.556Z,10.10
2018-10-12T02:09:42.814Z,10.00
2018-10-12T02:12:10.985Z,10.00
2018-10-12T02:14:39.133Z,10.10
2018-10-12T02:17:07.306Z,10.10
2018-10-12T02:19:35.480Z,10.10
2018-10-12T02:22:03.663Z,10.10
2018-10-12T02:24:31.848Z,10.10
2018-10-12T02:27:00.037Z,10.00
2018-10-12T02:29:28.201Z,10.00
2018-10-12T02:31:56.376Z,10.00
2018-10-12T02:34:24.547Z,9.90
2018-10-12T02:36:52.710Z,9.90
2018-10-12T02:39:20.875Z,9.90
2018-10-12T02:41:49.060Z,9.80
2018-10-12T02:44:17.236Z,9.80
2018-10-12T02:46:45.406Z,9.80
2018-10-12T02:49:13.579Z,9.80
2018-10-12T02:51:41.774Z,9.70
2018-10-12T02:54:09.945Z,9.70
2018-10-12T02:56:38.124Z,9.70
2018-10-12T02:59:06.625Z,9.70
2018-10-12T03:01:34.844Z,9.70
2018-10-12T03:04:03.003Z,9.80
2018-10-12T03:06:31.171Z,9.80
2018-10-12T03:08:59.371Z,9.80
2018-10-12T03:11:27.624Z,9.80
2018-10-12T03:13:55.847Z,9.80
2018-10-12T03:16:24.012Z,9.80
2018-10-12T03:18:52.162Z,9.80
2018-10-12T03:21:20.320Z,9.80
2018-10-12T03:23:48.473Z,9.80
2018-10-12T03:26:16.668Z,9.80
2018-10-12T03:28:44.834Z,9.80
2018-10-12T03:31:13.015Z,9.70
2018-10-12T03:33:41.179Z,9.70
2018-10-12T03:36:09.347Z,9.70
2018-10-12T03:38:37.498Z,9.70
2018-10-12T03:41:05.664Z,9.80
2018-10-12T03:43:34.049Z,9.80
2018-10-12T03:46:02.234Z,9.80
2018-10-12T03:48:30.647Z,9.80
2018-10-12T03:50:58.887Z,9.80
2018-10-12T03:53:27.059Z,9.90
2018-10-12T03:55:55.223Z,10.00
2018-10-12T03:58:23.424Z,10.10
2018-10-12T04:00:51.645Z,10.20
2018-10-12T04:03:19.806Z,10.40
2018-10-12T04:05:47.995Z,10.40
2018-10-12T04:08:16.356Z,10.40
2018-10-12T04:10:44.522Z,10.40
2018-10-12T04:13:12.722Z,10.40
2018-10-12T04:15:40.897Z,10.50
2018-10-12T04:18:09.076Z,10.50
2018-10-12T04:20:37.288Z,10.50
2018-10-12T04:23:05.474Z,10.50
2018-10-12T04:25:33.652Z,10.50
2018-10-12T04:28:01.866Z,10.60
2018-10-12T04:30:29.994Z,10.60
2018-10-12T04:32:58.173Z,10.60
2018-10-12T04:35:26.336Z,10.60
2018-10-12T04:37:54.543Z,10.70
2018-10-12T04:41:27.904Z,10.80
2018-10-12T04:43:58.539Z,10.70
2018-10-12T04:46:31.463Z,10.80
2018-10-12T04:49:00.386Z,10.70
2018-10-12T04:51:37.303Z,10.80
2018-10-12T04:54:05.548Z,10.80
2018-10-12T04:56:33.734Z,10.80
2018-10-12T04:59:01.948Z,10.90
2018-10-12T05:01:30.145Z,11.00
2018-10-12T05:03:58.316Z,11.00
2018-10-12T05:06:26.499Z,10.90
2018-10-12T05:08:54.702Z,11.00
2018-10-12T05:11:22.883Z,11.00
2018-10-12T05:13:51.071Z,11.10
2018-10-12T05:16:19.244Z,11.20
2018-10-12T05:18:47.423Z,11.20
2018-10-12T05:21:15.631Z,11.20
2018-10-12T05:23:44.079Z,11.20
2018-10-12T05:26:12.271Z,11.30
2018-10-12T05:28:40.480Z,11.20
2018-10-12T05:31:08.881Z,11.30
2018-10-12T05:33:37.106Z,11.10
2018-10-12T05:36:05.380Z,11.10
2018-10-12T05:38:34.030Z,11.20
2018-10-12T05:41:02.317Z,11.20
2018-10-12T05:43:30.748Z,11.20
2018-10-12T05:45:58.840Z,11.30
2018-10-12T05:48:38.294Z,11.30
2018-10-12T05:51:07.040Z,11.30
2018-10-12T05:53:35.577Z,11.20
2018-10-12T05:56:04.113Z,11.20
2018-10-12T05:58:32.411Z,11.10
2018-10-12T06:01:00.624Z,11.10
2018-10-12T06:03:29.315Z,11.10
2018-10-12T06:05:57.471Z,11.20
2018-10-12T06:08:25.643Z,11.20
2018-10-12T06:10:53.820Z,11.20
2018-10-12T06:13:22.007Z,11.30
2018-10-12T06:15:50.222Z,11.40
2018-10-12T06:18:18.383Z,11.40
2018-10-12T06:20:46.549Z,11.30
2018-10-12T06:23:16.818Z,11.40
2018-10-12T06:25:44.988Z,11.40
2018-10-12T06:28:13.199Z,11.40
2018-10-12T06:30:41.395Z,11.30
2018-10-12T06:33:09.569Z,11.20
2018-10-12T06:35:38.219Z,11.30
2018-10-12T06:38:06.395Z,11.40
2018-10-12T06:40:34.747Z,11.30
2018-10-12T06:43:02.938Z,11.40
2018-10-12T06:45:31.132Z,11.50
2018-10-12T06:47:59.409Z,11.70
2018-10-12T06:50:27.646Z,11.90
2018-10-12T06:52:55.820Z,12.30
2018-10-12T06:55:23.996Z,12.80
2018-10-12T06:57:52.155Z,13.40
2018-10-12T07:00:20.343Z,13.80
2018-10-12T07:02:48.571Z,14.60
2018-10-12T07:05:16.810Z,15.50
2018-10-12T07:07:45.342Z,16.50
2018-10-12T07:10:13.603Z,17.20
2018-10-12T07:12:41.790Z,17.80
2018-10-12T07:15:09.959Z,17.70
2018-10-12T07:17:38.267Z,17.30
2018-10-12T07:20:06.475Z,16.60
2018-10-12T07:22:34.639Z,16.20
2018-10-12T07:25:02.799Z,16.00
2018-10-12T07:27:30.963Z,15.60
2018-10-12T07:29:59.132Z,16.40
2018-10-12T07:32:27.308Z,17.60
2018-10-12T07:34:55.460Z,18.50
2018-10-12T07:37:23.808Z,19.40
2018-10-12T07:39:51.961Z,20.50
2018-10-12T07:42:20.194Z,21.00
2018-10-12T07:44:48.694Z,22.10
2018-10-12T07:47:16.989Z,22.30
2018-10-12T07:49:45.083Z,23.00
2018-10-12T07:52:13.331Z,23.30
2018-10-12T07:54:41.517Z,23.30
2018-10-12T07:57:10.544Z,24.00
2018-10-12T07:59:39.238Z,24.30
2018-10-12T08:02:08.233Z,24.60
2018-10-12T08:04:36.432Z,23.90
2018-10-12T08:07:04.658Z,24.80
2018-10-12T08:09:32.868Z,24.60
2018-10-12T08:12:00.969Z,24.70
2018-10-12T08:14:29.148Z,24.10
2018-10-12T08:16:57.431Z,23.40
2018-10-12T08:19:25.592Z,25.00
2018-10-12T08:21:53.780Z,25.20
2018-10-12T08:24:21.938Z,24.20
2018-10-12T08:26:50.401Z,24.10
2018-10-12T08:29:18.532Z,24.60
2018-10-12T08:31:46.686Z,25.00
2018-10-12T08:34:15.050Z,26.00
2018-10-12T08:36:43.644Z,25.30
2018-10-12T08:39:12.656Z,26.10
2018-10-12T08:41:40.877Z,27.00
2018-10-12T08:44:09.026Z,27.40
2018-10-12T08:46:37.219Z,25.80
2018-10-12T08:49:05.368Z,25.80
2018-10-12T08:51:34.036Z,25.50
2018-10-12T08:54:02.193Z,25.70
2018-10-12T08:56:30.406Z,25.80
2018-10-12T08:58:58.974Z,25.60
2018-10-12T09:01:27.143Z,25.80
2018-10-12T09:03:55.308Z,25.70
2018-10-12T09:06:23.463Z,27.60
2018-10-12T09:08:51.628Z,26.30
2018-10-12T09:11:19.784Z,26.50
2018-10-12T09:13:47.971Z,26.50
2018-10-12T09:16:16.293Z,25.90
2018-10-12T09:18:44.455Z,26.20
2018-10-12T09:21:12.618Z,26.20
2018-10-12T09:23:40.779Z,26.40
2018-10-12T09:26:08.955Z,25.90
2018-10-12T09:28:37.224Z,25.10
2018-10-12T09:31:05.635Z,24.10
2018-10-12T09:33:33.858Z,23.50
2018-10-12T09:36:02.021Z,23.90
2018-10-12T09:38:30.161Z,24.30
2018-10-12T09:40:58.307Z,24.30
2018-10-12T09:43:26.436Z,23.90
2018-10-12T09:45:54.595Z,23.70
2018-10-12T09:48:23.883Z,23.50
2018-10-12T09:50:52.104Z,23.60
2018-10-12T09:53:20.294Z,23.60
2018-10-12T09:55:48.714Z,23.70
2018-10-12T09:58:16.859Z,23.90
2018-10-12T10:00:50.395Z,23.80
2018-10-12T10:03:24.107Z,24.10
2018-10-12T10:05:52.261Z,24.10
2018-10-12T10:08:20.525Z,24.00
2018-10-12T10:10:48.543Z,24.70
2018-10-12T10:13:16.724Z,25.10
2018-10-12T10:15:45.186Z,25.80
2018-10-12T10:18:13.372Z,27.00
2018-10-12T10:20:41.528Z,29.00
2018-10-12T10:23:09.715Z,29.00
2018-10-12T10:25:38.095Z,28.40
2018-10-12T10:28:06.536Z,29.10
2018-10-12T10:30:34.680Z,29.20
2018-10-12T10:33:02.840Z,29.20
2018-10-12T10:35:30.971Z,28.40
2018-10-12T10:37:59.924Z,28.70
2018-10-12T10:40:28.078Z,29.20
2018-10-12T10:42:56.240Z,27.80
2018-10-12T10:45:24.423Z,29.30
2018-10-12T10:47:52.579Z,29.40
2018-10-12T10:50:20.768Z,28.60
2018-10-12T10:52:48.899Z,30.00
2018-10-12T10:55:17.075Z,29.20
2018-10-12T10:57:45.252Z,27.90
2018-10-12T11:00:13.420Z,28.10
2018-10-12T11:02:41.584Z,29.40
2018-10-12T11:05:09.714Z,29.50
2018-10-12T11:07:37.884Z,30.40
2018-10-12T11:10:06.090Z,31.50
2018-10-12T11:12:34.325Z,30.80
2018-10-12T11:15:02.487Z,30.00
2018-10-12T11:17:30.687Z,30.60
2018-10-12T11:19:58.859Z,30.00
2018-10-12T11:22:27.024Z,30.60
2018-10-12T11:24:55.240Z,30.80
2018-10-12T11:27:23.464Z,30.50
2018-10-12T11:29:51.628Z,30.80
2018-10-12T11:32:19.792Z,30.50
2018-10-12T11:34:47.958Z,30.80
2018-10-12T11:37:16.139Z,29.80
2018-10-12T11:39:44.302Z,30.00
2018-10-12T11:42:12.487Z,30.20
2018-10-12T11:44:40.666Z,30.60
2018-10-12T11:47:08.831Z,30.70
2018-10-12T11:49:36.982Z,30.20
2018-10-12T11:52:05.198Z,29.80
2018-10-12T11:54:34.106Z,30.10
2018-10-12T11:57:02.255Z,29.30
2018-10-12T11:59:30.400Z,30.20
2018-10-12T12:01:58.586Z,30.00
2018-10-12T12:04:26.734Z,28.80
2018-10-12T12:06:54.895Z,29.20
2018-10-12T12:09:23.056Z,28.80
2018-10-12T12:11:51.206Z,29.20
2018-10-12T12:14:19.479Z,28.80
2018-10-12T12:16:47.619Z,28.80
2018-10-12T12:19:15.798Z,28.30
2018-10-12T12:21:44.149Z,28.30
2018-10-12T12:24:12.295Z,27.80
2018-10-12T12:26:40.447Z,27.50
2018-10-12T12:29:08.645Z,27.30
2018-10-12T12:31:36.815Z,27.60
2018-10-12T12:34:04.967Z,27.50
2018-10-12T12:36:33.105Z,27.40
2018-10-12T12:39:01.264Z,27.80
2018-10-12T12:41:29.431Z,28.30
2018-10-12T12:43:57.583Z,28.20
2018-10-12T12:46:25.728Z,28.20
2018-10-12T12:48:54.203Z,28.70
2018-10-12T12:51:22.060Z,27.50
2018-10-12T12:53:50.368Z,27.70
2018-10-12T12:56:18.416Z,27.40
2018-10-12T12:58:46.555Z,27.20
2018-10-12T13:01:14.724Z,27.60
2018-10-12T13:03:42.874Z,27.90
2018-10-12T13:06:11.035Z,27.20
2018-10-12T13:08:39.239Z,28.00
2018-10-12T13:11:07.415Z,27.90
2018-10-12T13:13:35.631Z,27.50
2018-10-12T13:16:03.721Z,27.60
2018-10-12T13:18:31.868Z,27.20
2018-10-12T13:21:00.011Z,27.50
2018-10-12T13:23:28.163Z,27.40
2018-10-12T13:25:56.506Z,27.60
2018-10-12T13:28:24.532Z,27.70
2018-10-12T13:30:52.678Z,27.30
2018-10-12T13:33:20.839Z,27.30
2018-10-12T13:35:48.972Z,26.90
2018-10-12T13:38:17.158Z,26.90
2018-10-12T13:40:45.311Z,26.70
2018-10-12T13:43:13.487Z,26.40
2018-10-12T13:45:41.630Z,26.40
2018-10-12T13:48:09.768Z,26.00
2018-10-12T13:50:37.888Z,26.10
2018-10-12T13:53:06.370Z,26.10
2018-10-12T13:55:34.568Z,25.90
2018-10-12T13:58:02.727Z,25.80
2018-10-12T14:00:31.050Z,25.70
2018-10-12T14:02:59.142Z,25.60
2018-10-12T14:05:27.254Z,25.80
2018-10-12T14:07:55.395Z,26.00
2018-10-12T14:10:23.551Z,25.80
2018-10-12T14:12:51.698Z,25.60
2018-10-12T14:15:19.871Z,25.40
2018-10-12T14:17:48.037Z,25.60
2018-10-12T14:20:16.204Z,25.60
2018-10-12T14:22:48.504Z,25.60
2018-10-12T14:25:16.774Z,25.50
2018-10-12T14:27:44.839Z,25.50
2018-10-12T14:30:13.071Z,25.50
2018-10-12T14:32:41.231Z,25.50
2018-10-12T14:35:09.445Z,25.60
2018-10-12T14:37:37.611Z,25.40
2018-10-12T14:40:05.943Z,25.20
2018-10-12T14:42:34.143Z,25.10
2018-10-12T14:45:02.406Z,25.00
2018-10-12T14:47:30.487Z,24.90
2018-10-12T14:49:58.664Z,24.70
2018-10-12T14:52:26.835Z,24.60
2018-10-12T14:54:55.012Z,24.70
2018-10-12T14:57:23.196Z,24.60
2018-10-12T14:59:51.409Z,24.50
2018-10-12T15:02:19.980Z,24.60
2018-10-12T15:04:48.459Z,24.50
2018-10-12T15:07:16.628Z,24.40
2018-10-12T15:09:44.852Z,24.50
2018-10-12T15:12:12.999Z,24.50
2018-10-12T15:14:52.530Z,24.40
2018-10-12T15:17:20.837Z,24.50
2018-10-12T15:19:49.006Z,24.40
2018-10-12T15:22:17.155Z,24.50
2018-10-12T15:24:45.303Z,24.50
2018-10-12T15:27:13.476Z,24.40
2018-10-12T15:29:41.635Z,24.40
2018-10-12T15:32:09.914Z,24.40
2018-10-12T15:34:38.076Z,24.40
2018-10-12T15:37:06.284Z,24.20
2018-10-12T15:39:34.399Z,24.20
2018-10-12T15:42:02.539Z,24.10
2018-10-12T15:44:30.915Z,24.00
2018-10-12T15:46:59.086Z,23.90
2018-10-12T15:49:27.520Z,23.80
2018-10-12T15:51:55.707Z,23.80
2018-10-12T15:54:23.860Z,23.70
2018-10-12T15:56:52.122Z,23.70
2018-10-12T15:59:20.247Z,23.70
2018-10-12T16:01:48.380Z,23.80
2018-10-12T16:04:17.225Z,23.80
2018-10-12T16:06:45.403Z,23.60
2018-10-12T16:09:13.599Z,23.60
2018-10-12T16:11:41.748Z,23.40
2018-10-12T16:14:09.978Z,23.40
2018-10-12T16:16:38.399Z,23.30
2018-10-12T16:19:06.797Z,23.10
2018-10-12T16:21:35.069Z,23.10
2018-10-12T16:24:07.622Z,22.90
2018-10-12T16:26:35.874Z,22.70
2018-10-12T16:29:04.078Z,22.50
2018-10-12T16:31:32.210Z,22.50
2018-10-12T16:34:00.723Z,22.50
2018-10-12T16:36:28.923Z,22.40
2018-10-12T16:38:57.197Z,22.30
2018-10-12T16:41:25.367Z,22.20
2018-10-12T16:43:53.538Z,22.20
2018-10-12T16:46:21.710Z,22.10
2018-10-12T16:48:49.918Z,22.00
2018-10-12T16:51:18.120Z,21.90
2018-10-12T16:53:46.287Z,21.80
2018-10-12T16:56:14.452Z,21.80
2018-10-12T16:58:42.696Z,21.60
2018-10-12T17:01:10.857Z,21.60
2018-10-12T17:03:39.006Z,21.60
2018-10-12T17:06:07.231Z,21.60
2018-10-12T17:08:35.363Z,21.40
2018-10-12T17:11:03.559Z,21.40
2018-10-12T17:13:31.727Z,21.30
2018-10-12T17:15:59.876Z,21.30
2018-10-12T17:18:28.172Z,21.20
2018-10-12T17:20:56.291Z,20.90
2018-10-12T17:23:24.440Z,20.80
2018-10-12T17:25:52.609Z,20.70
2018-10-12T17:28:20.760Z,20.50
2018-10-12T17:30:48.927Z,20.50
2018-10-12T17:33:17.071Z,20.40
2018-10-12T17:35:45.250Z,20.30
2018-10-12T17:38:13.442Z,20.00
2018-10-12T17:40:41.588Z,19.90
2018-10-12T17:43:10.029Z,20.10
2018-10-12T17:45:38.107Z,20.10
2018-10-12T17:48:07.341Z,20.10
2018-10-12T17:50:35.541Z,20.10
2018-10-12T17:53:03.715Z,20.00
2018-10-12T17:55:31.902Z,20.00
2018-10-12T17:58:00.058Z,19.90
2018-10-12T18:00:28.250Z,19.70
2018-10-12T18:02:56.391Z,19.60
2018-10-12T18:05:24.580Z,19.50
2018-10-12T18:07:52.791Z,19.50
2018-10-12T18:10:20.995Z,19.30
2018-10-12T18:12:49.116Z,19.10
2018-10-12T18:15:17.377Z,19.10
2018-10-12T18:17:45.601Z,18.90
2018-10-12T18:20:13.764Z,18.70
2018-10-12T18:22:41.962Z,18.90
2018-10-12T18:25:10.170Z,18.70
2018-10-12T18:27:38.370Z,18.60
2018-10-12T18:30:06.554Z,18.40
2018-10-12T18:32:34.757Z,18.20
2018-10-12T18:35:02.903Z,18.00
2018-10-12T18:37:37.267Z,17.70
2018-10-12T18:40:05.529Z,17.60
2018-10-12T18:42:33.676Z,17.40
2018-10-12T18:45:01.827Z,17.30
2018-10-12T18:47:30.212Z,17.20
2018-10-12T18:49:58.657Z,17.00
2018-10-12T18:52:26.877Z,16.90
2018-10-12T18:54:55.068Z,16.70
2018-10-12T18:57:23.234Z,16.70
2018-10-12T18:59:51.438Z,16.50
2018-10-12T19:02:19.585Z,16.40
2018-10-12T19:04:47.806Z,16.30
2018-10-12T19:07:15.947Z,16.30
2018-10-12T19:09:44.103Z,16.10
2018-10-12T19:12:12.275Z,16.00
2018-10-12T19:14:40.435Z,15.90
2018-10-12T19:17:08.626Z,15.90
2018-10-12T19:19:36.881Z,15.90
2018-10-12T19:22:05.089Z,15.80
2018-10-12T19:24:33.259Z,15.70
2018-10-12T19:27:01.428Z,15.70
2018-10-12T19:29:29.599Z,15.60
2018-10-12T19:31:57.816Z,15.50
2018-10-12T19:34:25.927Z,15.40
2018-10-12T19:36:54.143Z,15.30
2018-10-12T19:39:22.313Z,15.30
2018-10-12T19:41:50.471Z,15.20
2018-10-12T19:44:18.660Z,15.10
2018-10-12T19:46:46.824Z,15.10
2018-10-12T19:49:16.033Z,15.00
2018-10-12T19:51:44.197Z,14.90
2018-10-12T19:54:12.360Z,14.80
2018-10-12T19:56:40.520Z,14.90
2018-10-12T19:59:08.751Z,14.80
2018-10-12T20:01:36.889Z,14.70
2018-10-12T20:04:05.036Z,14.60
2018-10-12T20:06:33.207Z,14.50
2018-10-12T20:09:01.367Z,14.50
2018-10-12T20:11:29.539Z,14.40
2018-10-12T20:13:57.731Z,14.40
2018-10-12T20:16:25.902Z,14.40
2018-10-12T20:18:57.210Z,14.30
2018-10-12T20:21:25.375Z,14.30
2018-10-12T20:23:53.601Z,14.20
2018-10-12T20:26:23.827Z,14.10
2018-10-12T20:28:52.029Z,14.10
2018-10-12T20:31:20.220Z,14.10
2018-10-12T20:33:49.624Z,14.00
2018-10-12T20:36:18.986Z,14.00
2018-10-12T20:38:47.149Z,13.90
2018-10-12T20:41:15.345Z,14.00
2018-10-12T20:43:43.508Z,13.90
2018-10-12T20:46:12.007Z,13.90
2018-10-12T20:48:40.447Z,13.90
2018-10-12T20:51:08.940Z,13.80
2018-10-12T20:53:38.155Z,13.70
2018-10-12T20:56:06.627Z,13.70
2018-10-12T20:58:35.819Z,13.60
2018-10-12T21:01:03.972Z,13.60
2018-10-12T21:03:37.803Z,13.60
2018-10-12T21:06:06.218Z,13.60
2018-10-12T21:08:34.593Z,13.60
2018-10-12T21:11:02.768Z,13.60
2018-10-12T21:13:30.945Z,13.60
2018-10-12T21:15:59.095Z,13.50
2018-10-12T21:18:27.407Z,13.50
2018-10-12T21:20:55.540Z,13.40
2018-10-12T21:23:24.705Z,13.40
2018-10-12T21:25:52.880Z,13.30
2018-10-12T21:28:21.132Z,13.30
2018-10-12T21:30:49.237Z,13.40
2018-10-12T21:33:17.400Z,13.30
2018-10-12T21:35:45.595Z,13.40
2018-10-12T21:38:13.786Z,13.30
2018-10-12T21:40:41.958Z,13.30
2018-10-12T21:43:10.139Z,13.20
2018-10-12T21:45:38.312Z,13.20
2018-10-12T21:48:12.407Z,13.10
2018-10-12T21:50:41.020Z,13.10
2018-10-12T21:53:09.092Z,13.00
2018-10-12T21:55:37.276Z,13.00
2018-10-12T21:58:07.028Z,13.00
2018-10-12T22:00:35.248Z,13.10
2018-10-12T22:03:03.424Z,13.00
2018-10-12T22:05:31.672Z,12.90
2018-10-12T22:08:00.695Z,12.90
2018-10-12T22:10:30.050Z,12.80
2018-10-12T22:13:03.635Z,12.90
2018-10-12T22:15:31.830Z,12.80
2018-10-12T22:18:00.198Z,12.80
2018-10-12T22:20:28.808Z,12.80
2018-10-12T22:22:56.966Z,12.80
2018-10-12T22:25:25.184Z,12.70
2018-10-12T22:27:53.386Z,12.60
2018-10-12T22:30:21.543Z,12.60
2018-10-12T22:32:50.767Z,12.50
2018-10-12T22:35:18.943Z,12.50
2018-10-12T22:37:47.101Z,12.50
2018-10-12T22:40:15.283Z,12.40
2018-10-12T22:42:43.493Z,12.40
2018-10-12T22:45:11.617Z,12.40
2018-10-12T22:47:39.770Z,12.40
2018-10-12T22:50:07.939Z,12.40
2018-10-12T22:52:36.112Z,12.30
2018-10-12T22:55:04.331Z,12.30
2018-10-12T22:57:33.404Z,12.30
2018-10-12T23:00:01.601Z,12.30
2018-10-12T23:02:29.824Z,12.30
2018-10-12T23:04:58.011Z,12.30
2018-10-12T23:07:26.186Z,12.30
2018-10-12T23:09:54.567Z,12.20
2018-10-12T23:12:22.735Z,12.20
2018-10-12T23:14:50.954Z,12.10
2018-10-12T23:17:19.131Z,12.10
2018-10-12T23:19:47.290Z,12.20
2018-10-12T23:22:15.503Z,12.10
2018-10-12T23:24:43.992Z,12.10
2018-10-12T23:27:12.162Z,12.00
2018-10-12T23:29:40.503Z,12.00
2018-10-12T23:32:08.695Z,11.90
2018-10-12T23:34:36.935Z,11.80
2018-10-12T23:37:05.185Z,11.90
2018-10-12T23:39:33.396Z,11.80
2018-10-12T23:42:01.568Z,11.80
2018-10-12T23:44:29.750Z,11.80
2018-10-12T23:46:57.999Z,11.80
2018-10-12T23:49:26.197Z,11.80
2018-10-12T23:51:54.396Z,11.80
2018-10-12T23:54:22.547Z,11.80
2018-10-12T23:56:50.773Z,11.70
2018-10-12T23:59:18.949Z,11.70
